Terminal Aerodrome Forecast
Issued by NWS

Home | Current Version | Previous Version | Graphics & Text | Print | Product List | Glossary On
Versions: 1 2 3 4 5 6 7 8 9 10 11 12 13 14 15 16 17 18
277
FTUS43 KICT 291140
TAFSLN
TAF
KSLN 291140Z 2912/3012 04017G26KT 6SM BR VCSH OVC008
      TEMPO 2912/2916 2SM +SHRA SCT008 OVC015
     FM291600 03018G27KT 5SM -SHRA VCTS BKN008 OVC015CB
     FM300000 01017G25KT 5SM -SHRA BR OVC006=

USA.gov is the U.S. government's official web portal to all federal, state and local government web resources and services.